Time;durP1;ratioP1;P1;durP2;ratioP2;P2;SDS_P1;SDS_P2;PMS_P1;PMS_P2;Temp;Humidity;BMP_temperature;BMP_pressure;BME280_temperature;BME280_humidity;BME280_pressure;Samples;Min_cycle;Max_cycle;Signal;HPM_P1;HPM_P2
2022/06/17 00:02:29;;;;;;;4.43;1.77;;;;;;;16.84;55.52;100610.69;30983618;28;96783;-67
2022/06/17 00:17:29;;;;;;;4.00;1.40;;;;;;;16.84;55.29;100616.06;30981132;28;96787;-64
2022/06/17 00:32:29;;;;;;;3.45;1.80;;;;;;;16.43;55.69;100631.19;30980946;28;96746;-73
2022/06/17 00:47:35;;;;;;;2.40;1.73;;;;;;;15.89;56.78;100636.19;30979307;28;106918;-68
2022/06/17 01:02:41;;;;;;;2.87;1.70;;;;;;;15.61;57.85;100648.72;30979235;28;97297;-73
2022/06/17 01:17:42;;;;;;;5.53;2.17;;;;;;;15.44;58.54;100648.97;30977232;28;97474;-76
2022/06/17 01:32:49;;;;;;;3.45;1.50;;;;;;;15.07;59.64;100648.16;30990988;28;97323;-73
2022/06/17 01:47:50;;;;;;;4.80;1.80;;;;;;;15.39;60.20;100652.25;30997255;28;96671;-75
2022/06/17 02:02:56;;;;;;;2.42;1.30;;;;;;;15.76;58.85;100657.56;30995434;28;97116;-71
2022/06/17 02:17:58;;;;;;;2.50;1.33;;;;;;;15.87;57.40;100659.75;30992963;28;96882;-74
2022/06/17 02:33:02;;;;;;;3.47;1.33;;;;;;;15.30;57.77;100664.13;30992447;28;96716;-74
2022/06/17 02:48:15;;;;;;;3.50;2.00;;;;;;;14.82;58.84;100678.00;30989599;28;97101;-74
2022/06/17 03:03:19;;;;;;;4.13;1.90;;;;;;;14.82;59.02;100693.25;30988987;28;96749;-59
2022/06/17 03:18:21;;;;;;;4.27;2.23;;;;;;;15.18;59.13;100713.94;30986799;28;96690;-72
2022/06/17 03:33:32;;;;;;;;;;;;;;;15.51;58.45;100730.44;30985812;28;96756;-66
2022/06/17 03:49:06;;;;;;;4.33;1.60;;;;;;;15.73;57.18;100747.41;30982511;28;96725;-74
2022/06/17 04:04:15;;;;;;;4.90;2.00;;;;;;;15.54;57.34;100764.09;30967799;28;97011;-60
2022/06/17 04:19:19;;;;;;;4.67;1.80;;;;;;;15.56;57.12;100783.56;30976025;28;96963;-68
2022/06/17 04:34:27;;;;;;;5.83;1.70;;;;;;;15.57;56.59;100771.81;31205085;28;96980;-69
2022/06/17 04:49:32;;;;;;;3.80;1.33;;;;;;;15.80;56.12;100781.56;31200366;28;96704;-65
2022/06/17 05:04:32;;;;;;;1.70;1.27;;;;;;;16.03;55.33;100792.16;31199653;27;96892;-67
2022/06/17 05:19:33;;;;;;;4.38;1.50;;;;;;;16.38;55.26;100795.78;31195473;28;98849;-73
2022/06/17 05:34:33;;;;;;;2.67;1.20;;;;;;;16.99;54.47;100785.50;31175665;27;96758;-69
2022/06/17 05:49:34;;;;;;;2.42;1.08;;;;;;;17.66;53.04;100793.88;31111294;28;96695;-72
2022/06/17 06:04:34;;;;;;;3.50;1.40;;;;;;;18.49;51.45;100799.00;31109624;28;97256;-69
2022/06/17 06:19:34;;;;;;;4.00;1.00;;;;;;;19.30;49.87;100774.59;31108011;28;97259;-68
2022/06/17 06:34:35;;;;;;;2.00;1.08;;;;;;;19.98;48.32;100813.78;31104463;28;103756;-68
2022/06/17 06:49:35;;;;;;;3.80;1.10;;;;;;;20.79;46.33;100823.81;31147751;28;97978;-65
2022/06/17 07:04:35;;;;;;;1.45;1.10;;;;;;;21.40;44.09;100829.41;31166828;28;98303;-71
2022/06/17 07:19:36;;;;;;;3.78;1.35;;;;;;;22.38;42.59;100834.00;31152199;27;99246;-67
2022/06/17 07:34:36;;;;;;;3.53;1.00;;;;;;;23.19;39.74;100861.44;31068375;28;96822;-71
2022/06/17 07:49:38;;;;;;;1.47;0.97;;;;;;;24.06;38.14;100867.84;31094585;28;96921;-69
2022/06/17 08:04:40;;;;;;;5.10;1.40;;;;;;;24.18;37.77;100856.91;31096446;28;96738;-69
2022/06/17 08:19:43;;;;;;;3.50;1.77;;;;;;;24.64;35.80;100863.16;31098445;28;96680;-66
2022/06/17 08:34:43;;;;;;;2.43;1.00;;;;;;;25.44;35.17;100873.88;31094635;28;96898;-69
2022/06/17 08:49:44;;;;;;;4.47;1.00;;;;;;;26.22;33.47;100874.75;31094828;28;96746;-64
2022/06/17 09:04:57;;;;;;;2.25;1.05;;;;;;;26.59;32.20;100872.09;31088626;28;97044;-63
2022/06/17 09:20:03;;;;;;;2.47;1.30;;;;;;;26.46;32.55;100875.25;31111284;28;97188;-66
2022/06/17 09:35:13;;;;;;;3.27;1.10;;;;;;;26.73;32.72;100879.88;31111470;28;97309;-69
2022/06/17 09:50:28;;;;;;;5.40;1.13;;;;;;;27.27;31.93;100879.69;31112967;28;96692;-66
2022/06/17 10:05:48;;;;;;;2.50;1.30;;;;;;;26.68;31.71;100884.19;31110326;28;96727;-65
2022/06/17 10:20:56;;;;;;;4.47;1.13;;;;;;;27.23;30.85;100880.47;31107049;28;97489;-60
2022/06/17 10:35:56;;;;;;;4.73;1.30;;;;;;;28.16;29.17;100884.44;31101900;28;97546;-74
2022/06/17 10:50:59;;;;;;;3.45;1.20;;;;;;;27.51;29.35;100882.81;31103606;28;97062;-64
2022/06/17 11:06:14;;;;;;;2.00;0.90;;;;;;;27.95;28.92;100872.56;31100815;28;96689;-83
2022/06/17 11:21:28;;;;;;;1.20;1.00;;;;;;;28.31;28.65;100862.53;31101224;28;96983;-71
2022/06/17 11:36:31;;;;;;;2.27;0.93;;;;;;;28.63;28.13;100847.72;30996450;28;97678;-64
2022/06/17 11:51:35;;;;;;;3.07;1.27;;;;;;;28.39;27.90;100844.72;31098991;28;98313;-68
2022/06/17 12:06:47;;;;;;;3.47;1.20;;;;;;;28.99;27.14;100841.38;31098539;28;96910;-67
2022/06/17 12:21:55;;;;;;;4.10;1.00;;;;;;;29.37;26.01;100830.84;31088285;28;97276;-64
2022/06/17 12:37:01;;;;;;;5.27;2.50;;;;;;;29.18;26.34;100830.63;31090383;28;97079;-69
2022/06/17 13:07:48;;;;;;;1.80;0.97;;;;;;;28.76;26.20;100813.47;31102379;28;96997;-75
2022/06/17 13:23:28;;;;;;;1.67;1.13;;;;;;;28.71;26.63;100802.50;31103558;28;97792;-76
2022/06/17 13:38:55;;;;;;;2.97;1.13;;;;;;;28.54;26.23;100802.75;31060476;28;97792;-63
2022/06/17 13:54:20;;;;;;;2.67;1.23;;;;;;;28.16;26.58;100783.09;31166254;27;97082;-69
2022/06/17 14:09:25;;;;;;;4.07;1.30;;;;;;;28.46;25.86;100784.13;31148683;28;96913;-69
2022/06/17 14:24:43;;;;;;;2.70;1.20;;;;;;;28.14;26.58;100777.06;31158414;28;96856;-63
2022/06/17 14:39:53;;;;;;;2.57;1.20;;;;;;;27.84;27.38;100775.91;31148502;28;97970;-74
2022/06/17 14:55:02;;;;;;;3.30;1.17;;;;;;;27.68;27.48;100761.38;31097771;28;96730;-68
2022/06/17 15:10:16;;;;;;;3.23;1.53;;;;;;;27.42;27.91;100760.50;31094858;28;97366;-64
2022/06/17 15:25:46;;;;;;;4.23;1.97;;;;;;;27.30;28.00;100758.78;31086760;28;96863;-73
2022/06/17 15:40:47;;;;;;;3.43;1.33;;;;;;;27.26;28.56;100751.41;30977158;28;97058;-62
2022/06/17 15:55:48;;;;;;;2.08;1.30;;;;;;;26.94;28.13;100758.66;31090197;28;96730;-68
2022/06/17 16:11:10;;;;;;;4.60;1.40;;;;;;;26.06;29.34;100745.50;31088970;28;97045;-63
2022/06/17 16:26:17;;;;;;;2.47;1.20;;;;;;;26.16;29.44;100742.81;31081887;28;96860;-65
2022/06/17 16:57:00;;;;;;;2.83;1.70;;;;;;;25.73;29.75;100744.63;31082939;28;96913;-64
2022/06/17 17:12:01;;;;;;;3.73;1.30;;;;;;;25.82;29.09;100740.31;31083684;28;97135;-66
2022/06/17 17:27:01;;;;;;;2.47;1.00;;;;;;;25.36;29.72;100753.50;31032780;28;97456;-65
2022/06/17 17:42:03;;;;;;;2.15;1.00;;;;;;;24.98;29.41;100747.84;30987075;28;97009;-72
2022/06/17 17:57:04;;;;;;;2.20;1.27;;;;;;;24.50;30.55;100752.88;30987522;28;96676;-70
2022/06/17 18:12:06;;;;;;;2.20;1.25;;;;;;;23.99;31.52;100758.34;30987325;28;96832;-62
2022/06/17 18:27:11;;;;;;;2.50;1.30;;;;;;;23.49;32.38;100754.41;30984169;28;97142;-66
2022/06/17 18:57:30;;;;;;;3.80;1.57;;;;;;;22.28;34.52;100767.50;31060278;28;97126;-62
2022/06/17 19:27:53;;;;;;;5.10;1.70;;;;;;;21.18;37.12;100774.84;31103972;28;97167;-68
2022/06/17 19:42:54;;;;;;;10.87;7.47;;;;;;;20.71;38.43;100796.19;31103026;28;97002;-77
2022/06/17 19:58:04;;;;;;;9.35;3.15;;;;;;;20.22;39.78;100804.88;31092761;28;97174;-69
2022/06/17 20:13:05;;;;;;;8.13;3.67;;;;;;;19.78;41.23;100803.91;31070385;28;97210;-76
2022/06/17 20:28:06;;;;;;;7.03;4.00;;;;;;;19.57;42.42;100800.47;30975492;28;97508;-67
2022/06/17 20:43:08;;;;;;;7.03;3.28;;;;;;;19.49;43.68;100795.31;31063463;28;98048;-67
2022/06/17 20:58:12;;;;;;;;;;;;;;;19.68;44.48;100804.34;31087261;28;97163;-64
2022/06/17 21:13:19;;;;;;;8.00;4.30;;;;;;;19.55;44.90;100786.31;31044166;28;96743;-80
2022/06/17 21:28:21;;;;;;;7.87;4.47;;;;;;;19.17;46.00;100797.91;31030098;28;96979;-70
2022/06/17 21:43:29;;;;;;;11.60;4.63;;;;;;;18.87;47.36;100792.94;31111575;28;96830;-72
2022/06/17 21:58:33;;;;;;;6.53;4.30;;;;;;;18.64;48.49;100788.00;31112398;28;97127;-81
2022/06/17 22:13:34;;;;;;;7.87;5.07;;;;;;;18.08;49.95;100783.84;31110258;28;97014;-80
2022/06/17 22:28:34;;;;;;;8.63;4.25;;;;;;;17.64;51.66;100777.09;31105560;28;96920;-79
2022/06/17 22:43:35;;;;;;;8.38;3.45;;;;;;;17.30;53.40;100768.06;31110495;28;97526;-83
2022/06/17 22:58:35;;;;;;;8.25;4.80;;;;;;;17.11;54.16;100767.75;31109047;28;96730;-67
2022/06/17 23:13:35;;;;;;;6.95;4.30;;;;;;;16.81;54.99;100770.66;31100599;28;103309;-70
2022/06/17 23:28:36;;;;;;;11.13;4.65;;;;;;;16.46;56.58;100769.78;31100613;28;100321;-64
2022/06/17 23:43:36;;;;;;;6.40;4.78;;;;;;;16.24;57.34;100757.22;31101101;28;98426;-79
2022/06/17 23:58:57;;;;;;;7.03;4.30;;;;;;;16.82;57.60;100748.09;31103558;28;97294;-78
